sensor_id;sensor_type;location;lat;lon;timestamp;pressure;altitude;pressure_sealevel;temperature;humidity
56568;BME280;42456;49.956;20.004;2022-09-17T00:01:02;97361.33;;;9.15;79.44
56568;BME280;42456;49.956;20.004;2022-09-17T00:03:31;97353.83;;;9.14;79.47
56568;BME280;42456;49.956;20.004;2022-09-17T00:06:06;97349.38;;;9.12;79.47
56568;BME280;42456;49.956;20.004;2022-09-17T00:08:33;97343.57;;;9.10;79.44
56568;BME280;42456;49.956;20.004;2022-09-17T00:11:16;97340.02;;;9.06;79.58
56568;BME280;42456;49.956;20.004;2022-09-17T00:13:46;97348.75;;;9.03;79.49
56568;BME280;42456;49.956;20.004;2022-09-17T00:16:20;97347.50;;;9.01;79.72
56568;BME280;42456;49.956;20.004;2022-09-17T00:18:50;97346.95;;;9.01;80.11
56568;BME280;42456;49.956;20.004;2022-09-17T00:21:17;97345.74;;;8.99;80.00
56568;BME280;42456;49.956;20.004;2022-09-17T00:23:45;97340.72;;;8.97;80.01
56568;BME280;42456;49.956;20.004;2022-09-17T00:26:11;97348.52;;;8.96;80.05
56568;BME280;42456;49.956;20.004;2022-09-17T00:28:37;97354.34;;;8.98;80.15
56568;BME280;42456;49.956;20.004;2022-09-17T00:31:07;97354.13;;;8.97;80.20
56568;BME280;42456;49.956;20.004;2022-09-17T00:33:34;97358.91;;;8.98;80.31
56568;BME280;42456;49.956;20.004;2022-09-17T00:36:03;97353.89;;;8.96;80.34
56568;BME280;42456;49.956;20.004;2022-09-17T00:38:30;97355.56;;;8.95;80.29
56568;BME280;42456;49.956;20.004;2022-09-17T00:40:57;97358.17;;;8.91;80.32
56568;BME280;42456;49.956;20.004;2022-09-17T00:46:34;97365.64;;;8.86;80.26
56568;BME280;42456;49.956;20.004;2022-09-17T00:49:21;97369.80;;;8.83;80.29
56568;BME280;42456;49.956;20.004;2022-09-17T00:54:32;97364.11;;;8.79;80.29
56568;BME280;42456;49.956;20.004;2022-09-17T00:57:00;97359.63;;;8.77;80.33
56568;BME280;42456;49.956;20.004;2022-09-17T00:59:27;97356.53;;;8.75;80.47
56568;BME280;42456;49.956;20.004;2022-09-17T01:01:53;97363.99;;;8.75;80.62
56568;BME280;42456;49.956;20.004;2022-09-17T01:04:22;97352.39;;;8.71;80.50
56568;BME280;42456;49.956;20.004;2022-09-17T01:06:56;97349.84;;;8.69;80.48
56568;BME280;42456;49.956;20.004;2022-09-17T01:09:48;97344.58;;;8.66;80.62
56568;BME280;42456;49.956;20.004;2022-09-17T01:12:48;97349.06;;;8.62;80.48
56568;BME280;42456;49.956;20.004;2022-09-17T01:26:49;97345.73;;;8.41;80.67
56568;BME280;42456;49.956;20.004;2022-09-17T01:32:07;97355.45;;;8.34;80.85
56568;BME280;42456;49.956;20.004;2022-09-17T01:34:54;97355.13;;;8.29;80.75
56568;BME280;42456;49.956;20.004;2022-09-17T01:37:36;97354.58;;;8.24;80.50
56568;BME280;42456;49.956;20.004;2022-09-17T01:43:14;97355.43;;;8.16;80.88
56568;BME280;42456;49.956;20.004;2022-09-17T01:45:42;97354.97;;;8.14;81.01
56568;BME280;42456;49.956;20.004;2022-09-17T01:48:14;97364.47;;;8.11;81.20
56568;BME280;42456;49.956;20.004;2022-09-17T01:50:53;97366.35;;;8.11;81.26
56568;BME280;42456;49.956;20.004;2022-09-17T01:53:25;97366.47;;;8.08;81.14
56568;BME280;42456;49.956;20.004;2022-09-17T01:55:54;97359.98;;;8.03;80.97
56568;BME280;42456;49.956;20.004;2022-09-17T01:58:31;97353.95;;;8.00;80.86
56568;BME280;42456;49.956;20.004;2022-09-17T02:01:05;97361.66;;;7.96;80.97
56568;BME280;42456;49.956;20.004;2022-09-17T02:03:52;97357.20;;;7.94;81.00
56568;BME280;42456;49.956;20.004;2022-09-17T02:06:28;97350.72;;;7.89;80.97
56568;BME280;42456;49.956;20.004;2022-09-17T02:08:59;97356.53;;;7.85;81.03
56568;BME280;42456;49.956;20.004;2022-09-17T02:11:27;97356.61;;;7.82;81.16
56568;BME280;42456;49.956;20.004;2022-09-17T02:13:59;97356.73;;;7.80;81.25
56568;BME280;42456;49.956;20.004;2022-09-17T02:16:36;97352.26;;;7.78;81.23
56568;BME280;42456;49.956;20.004;2022-09-17T02:19:52;97356.94;;;7.74;81.22
56568;BME280;42456;49.956;20.004;2022-09-17T02:22:00;97347.69;;;7.72;81.12
56568;BME280;42456;49.956;20.004;2022-09-17T02:24:51;97353.16;;;7.69;81.22
56568;BME280;42456;49.956;20.004;2022-09-17T02:27:23;97354.37;;;7.66;81.32
56568;BME280;42456;49.956;20.004;2022-09-17T02:29:52;97364.39;;;7.63;81.32
56568;BME280;42456;49.956;20.004;2022-09-17T02:32:18;97370.66;;;7.61;81.42
56568;BME280;42456;49.956;20.004;2022-09-17T02:34:45;97371.20;;;7.60;81.46
56568;BME280;42456;49.956;20.004;2022-09-17T02:37:12;97370.41;;;7.60;81.44
56568;BME280;42456;49.956;20.004;2022-09-17T02:39:39;97361.95;;;7.58;81.50
56568;BME280;42456;49.956;20.004;2022-09-17T02:48:19;97356.81;;;7.59;81.66
56568;BME280;42456;49.956;20.004;2022-09-17T02:56:47;97345.77;;;7.54;81.71
56568;BME280;42456;49.956;20.004;2022-09-17T03:02:04;97336.60;;;7.49;81.93
56568;BME280;42456;49.956;20.004;2022-09-17T03:04:33;97337.18;;;7.49;81.94
56568;BME280;42456;49.956;20.004;2022-09-17T03:07:08;97338.27;;;7.48;81.93
56568;BME280;42456;49.956;20.004;2022-09-17T03:09:36;97330.82;;;7.47;81.94
56568;BME280;42456;49.956;20.004;2022-09-17T03:12:03;97332.16;;;7.47;81.94
56568;BME280;42456;49.956;20.004;2022-09-17T03:14:30;97328.14;;;7.47;82.03
56568;BME280;42456;49.956;20.004;2022-09-17T03:16:56;97323.89;;;7.46;82.06
56568;BME280;42456;49.956;20.004;2022-09-17T03:19:22;97320.88;;;7.48;82.15
56568;BME280;42456;49.956;20.004;2022-09-17T03:21:48;97318.78;;;7.47;82.01
56568;BME280;42456;49.956;20.004;2022-09-17T03:24:15;97323.34;;;7.47;81.90
56568;BME280;42456;49.956;20.004;2022-09-17T03:26:41;97321.55;;;7.45;81.86
56568;BME280;42456;49.956;20.004;2022-09-17T03:29:08;97320.53;;;7.43;81.85
56568;BME280;42456;49.956;20.004;2022-09-17T03:31:34;97316.64;;;7.41;81.94
56568;BME280;42456;49.956;20.004;2022-09-17T03:34:01;97316.42;;;7.40;81.87
56568;BME280;42456;49.956;20.004;2022-09-17T03:36:27;97317.52;;;7.39;81.76
56568;BME280;42456;49.956;20.004;2022-09-17T03:38:55;97312.06;;;7.35;81.83
56568;BME280;42456;49.956;20.004;2022-09-17T03:41:22;97316.08;;;7.35;82.04
56568;BME280;42456;49.956;20.004;2022-09-17T03:43:48;97314.73;;;7.35;82.18
56568;BME280;42456;49.956;20.004;2022-09-17T03:46:16;97316.63;;;7.35;82.22
56568;BME280;42456;49.956;20.004;2022-09-17T03:48:42;97320.85;;;7.36;82.30
56568;BME280;42456;49.956;20.004;2022-09-17T03:51:08;97317.41;;;7.35;82.40
56568;BME280;42456;49.956;20.004;2022-09-17T03:53:36;97307.05;;;7.34;82.25
56568;BME280;42456;49.956;20.004;2022-09-17T03:56:04;97308.47;;;7.31;82.06
56568;BME280;42456;49.956;20.004;2022-09-17T03:58:31;97310.47;;;7.28;81.85
56568;BME280;42456;49.956;20.004;2022-09-17T04:00:58;97304.55;;;7.23;81.80
56568;BME280;42456;49.956;20.004;2022-09-17T04:03:26;97304.42;;;7.19;81.88
56568;BME280;42456;49.956;20.004;2022-09-17T04:05:53;97306.66;;;7.17;81.97
56568;BME280;42456;49.956;20.004;2022-09-17T04:08:20;97297.97;;;7.14;81.89
56568;BME280;42456;49.956;20.004;2022-09-17T04:10:47;97295.16;;;7.11;81.73
56568;BME280;42456;49.956;20.004;2022-09-17T04:13:14;97291.59;;;7.07;81.74
56568;BME280;42456;49.956;20.004;2022-09-17T04:15:41;97286.90;;;7.04;81.69
56568;BME280;42456;49.956;20.004;2022-09-17T04:18:08;97289.66;;;7.01;81.91
56568;BME280;42456;49.956;20.004;2022-09-17T04:20:34;97289.77;;;6.99;81.76
56568;BME280;42456;49.956;20.004;2022-09-17T04:23:01;97292.55;;;6.96;81.73
56568;BME280;42456;49.956;20.004;2022-09-17T04:25:27;97293.75;;;6.93;81.74
56568;BME280;42456;49.956;20.004;2022-09-17T04:27:53;97291.95;;;6.91;81.71
56568;BME280;42456;49.956;20.004;2022-09-17T04:30:19;97286.25;;;6.86;81.64
56568;BME280;42456;49.956;20.004;2022-09-17T04:32:46;97289.59;;;6.83;81.74
56568;BME280;42456;49.956;20.004;2022-09-17T04:35:12;97304.61;;;6.82;81.86
56568;BME280;42456;49.956;20.004;2022-09-17T04:37:39;97310.86;;;6.80;81.90
56568;BME280;42456;49.956;20.004;2022-09-17T04:40:06;97308.51;;;6.78;81.81
56568;BME280;42456;49.956;20.004;2022-09-17T04:42:33;97300.57;;;6.76;81.85
56568;BME280;42456;49.956;20.004;2022-09-17T04:44:59;97310.17;;;6.77;82.02
56568;BME280;42456;49.956;20.004;2022-09-17T04:47:25;97307.72;;;6.78;82.10
56568;BME280;42456;49.956;20.004;2022-09-17T04:49:51;97312.73;;;6.79;82.21
56568;BME280;42456;49.956;20.004;2022-09-17T04:52:18;97313.20;;;6.81;82.25
56568;BME280;42456;49.956;20.004;2022-09-17T04:54:44;97313.64;;;6.83;82.25
56568;BME280;42456;49.956;20.004;2022-09-17T04:57:10;97315.44;;;6.85;82.24
56568;BME280;42456;49.956;20.004;2022-09-17T04:59:36;97299.62;;;6.86;82.19
56568;BME280;42456;49.956;20.004;2022-09-17T05:02:03;97300.63;;;6.88;82.04
56568;BME280;42456;49.956;20.004;2022-09-17T05:04:29;97294.73;;;6.88;82.15
56568;BME280;42456;49.956;20.004;2022-09-17T05:06:55;97281.73;;;6.93;82.33
56568;BME280;42456;49.956;20.004;2022-09-17T05:09:22;97279.54;;;7.01;82.41
56568;BME280;42456;49.956;20.004;2022-09-17T05:11:48;97284.68;;;7.12;82.47
56568;BME280;42456;49.956;20.004;2022-09-17T05:14:14;97284.38;;;7.25;82.57
56568;BME280;42456;49.956;20.004;2022-09-17T05:16:40;97285.75;;;7.37;82.51
56568;BME280;42456;49.956;20.004;2022-09-17T05:19:07;97292.38;;;7.52;82.55
56568;BME280;42456;49.956;20.004;2022-09-17T05:21:33;97294.83;;;7.69;82.76
56568;BME280;42456;49.956;20.004;2022-09-17T05:23:59;97299.19;;;7.86;82.88
56568;BME280;42456;49.956;20.004;2022-09-17T05:26:26;97304.55;;;7.98;83.00
56568;BME280;42456;49.956;20.004;2022-09-17T05:28:54;97300.53;;;8.16;83.14
56568;BME280;42456;49.956;20.004;2022-09-17T05:31:20;97291.95;;;8.34;83.23
56568;BME280;42456;49.956;20.004;2022-09-17T05:33:46;97295.36;;;8.53;83.20
56568;BME280;42456;49.956;20.004;2022-09-17T05:36:12;97289.95;;;8.71;82.80
56568;BME280;42456;49.956;20.004;2022-09-17T05:38:39;97299.42;;;8.80;82.30
56568;BME280;42456;49.956;20.004;2022-09-17T05:41:05;97295.94;;;8.86;82.20
56568;BME280;42456;49.956;20.004;2022-09-17T05:43:32;97295.16;;;8.91;82.09
56568;BME280;42456;49.956;20.004;2022-09-17T05:46:02;97287.19;;;8.95;82.12
56568;BME280;42456;49.956;20.004;2022-09-17T05:48:30;97288.84;;;8.99;82.20
56568;BME280;42456;49.956;20.004;2022-09-17T05:50:57;97297.11;;;9.06;82.35
56568;BME280;42456;49.956;20.004;2022-09-17T05:53:23;97298.08;;;9.14;82.28
56568;BME280;42456;49.956;20.004;2022-09-17T05:55:49;97315.56;;;9.23;82.37
56568;BME280;42456;49.956;20.004;2022-09-17T05:58:17;97317.77;;;9.33;82.51
56568;BME280;42456;49.956;20.004;2022-09-17T06:00:45;97309.31;;;9.47;82.56
56568;BME280;42456;49.956;20.004;2022-09-17T06:03:14;97299.19;;;9.56;82.56
56568;BME280;42456;49.956;20.004;2022-09-17T06:05:42;97299.67;;;9.68;82.66
56568;BME280;42456;49.956;20.004;2022-09-17T06:08:09;97310.19;;;9.82;82.65
56568;BME280;42456;49.956;20.004;2022-09-17T06:10:36;97318.30;;;9.92;82.57
56568;BME280;42456;49.956;20.004;2022-09-17T06:13:03;97320.75;;;10.06;82.64
56568;BME280;42456;49.956;20.004;2022-09-17T06:15:29;97311.47;;;10.25;82.85
56568;BME280;42456;49.956;20.004;2022-09-17T06:17:56;97305.98;;;10.47;82.99
56568;BME280;42456;49.956;20.004;2022-09-17T06:20:22;97297.03;;;10.68;82.78
56568;BME280;42456;49.956;20.004;2022-09-17T06:22:48;97301.07;;;10.87;82.56
56568;BME280;42456;49.956;20.004;2022-09-17T06:25:23;97308.53;;;11.03;82.52
56568;BME280;42456;49.956;20.004;2022-09-17T06:27:51;97311.76;;;11.21;82.33
56568;BME280;42456;49.956;20.004;2022-09-17T06:30:17;97299.37;;;11.36;82.08
56568;BME280;42456;49.956;20.004;2022-09-17T06:32:43;97288.48;;;11.52;81.78
56568;BME280;42456;49.956;20.004;2022-09-17T06:35:10;97286.50;;;11.68;81.45
56568;BME280;42456;49.956;20.004;2022-09-17T06:37:36;97292.61;;;11.87;81.32
56568;BME280;42456;49.956;20.004;2022-09-17T06:40:05;97299.26;;;12.06;81.02
56568;BME280;42456;49.956;20.004;2022-09-17T06:42:32;97305.23;;;12.19;80.44
56568;BME280;42456;49.956;20.004;2022-09-17T06:44:59;97303.33;;;12.32;79.97
56568;BME280;42456;49.956;20.004;2022-09-17T06:47:25;97297.50;;;12.43;79.62
56568;BME280;42456;49.956;20.004;2022-09-17T06:49:52;97291.89;;;12.55;79.43
56568;BME280;42456;49.956;20.004;2022-09-17T06:52:20;97294.67;;;12.75;78.51
56568;BME280;42456;49.956;20.004;2022-09-17T06:54:46;97294.67;;;12.75;78.51
56568;BME280;42456;49.956;20.004;2022-09-17T06:57:12;97291.13;;;12.84;78.30
56568;BME280;42456;49.956;20.004;2022-09-17T06:59:39;97289.23;;;13.01;77.98
56568;BME280;42456;49.956;20.004;2022-09-17T07:02:05;97289.23;;;13.01;77.98
56568;BME280;42456;49.956;20.004;2022-09-17T07:04:31;97299.72;;;13.06;77.68
56568;BME280;42456;49.956;20.004;2022-09-17T07:06:57;97302.61;;;13.07;77.28
56568;BME280;42456;49.956;20.004;2022-09-17T07:09:23;97295.72;;;13.10;77.35
56568;BME280;42456;49.956;20.004;2022-09-17T07:11:50;97299.72;;;13.06;76.13
56568;BME280;42456;49.956;20.004;2022-09-17T07:14:16;97299.72;;;13.06;76.13
56568;BME280;42456;49.956;20.004;2022-09-17T07:16:43;97310.84;;;13.18;76.47
56568;BME280;42456;49.956;20.004;2022-09-17T07:19:10;97308.84;;;13.28;75.98
56568;BME280;42456;49.956;20.004;2022-09-17T07:21:37;97309.90;;;13.37;75.78
56568;BME280;42456;49.956;20.004;2022-09-17T07:24:03;97301.54;;;13.49;75.59
56568;BME280;42456;49.956;20.004;2022-09-17T07:26:29;97302.80;;;13.58;75.22
56568;BME280;42456;49.956;20.004;2022-09-17T07:28:56;97301.56;;;13.69;74.87
56568;BME280;42456;49.956;20.004;2022-09-17T07:31:23;97306.84;;;13.78;74.44
56568;BME280;42456;49.956;20.004;2022-09-17T07:33:49;97319.28;;;13.86;73.93
56568;BME280;42456;49.956;20.004;2022-09-17T07:36:15;97326.31;;;13.94;73.32
56568;BME280;42456;49.956;20.004;2022-09-17T07:38:44;97326.59;;;14.06;73.16
56568;BME280;42456;49.956;20.004;2022-09-17T07:41:13;97335.21;;;14.18;72.57
56568;BME280;42456;49.956;20.004;2022-09-17T07:43:41;97341.72;;;14.34;72.66
56568;BME280;42456;49.956;20.004;2022-09-17T07:46:15;97350.36;;;14.50;72.04
56568;BME280;42456;49.956;20.004;2022-09-17T07:48:39;97350.59;;;14.58;71.53
56568;BME280;42456;49.956;20.004;2022-09-17T07:51:05;97351.26;;;14.68;71.37
56568;BME280;42456;49.956;20.004;2022-09-17T07:53:31;97348.21;;;14.76;71.02
56568;BME280;42456;49.956;20.004;2022-09-17T07:55:59;97354.06;;;14.85;70.94
56568;BME280;42456;49.956;20.004;2022-09-17T07:58:31;97346.56;;;14.92;70.36
56568;BME280;42456;49.956;20.004;2022-09-17T08:01:05;97341.53;;;14.94;69.96
56568;BME280;42456;49.956;20.004;2022-09-17T08:03:33;97342.72;;;15.00;69.86
56568;BME280;42456;49.956;20.004;2022-09-17T08:06:06;97340.23;;;15.04;69.76
56568;BME280;42456;49.956;20.004;2022-09-17T08:08:34;97328.86;;;15.08;69.59
56568;BME280;42456;49.956;20.004;2022-09-17T08:11:03;97329.45;;;15.12;68.67
56568;BME280;42456;49.956;20.004;2022-09-17T08:13:32;97333.67;;;15.09;68.43
56568;BME280;42456;49.956;20.004;2022-09-17T08:16:00;97334.27;;;15.08;68.40
56568;BME280;42456;49.956;20.004;2022-09-17T08:18:28;97323.03;;;15.06;68.37
56568;BME280;42456;49.956;20.004;2022-09-17T08:20:59;97325.55;;;15.09;68.32
56568;BME280;42456;49.956;20.004;2022-09-17T08:23:27;97321.11;;;15.10;68.02
56568;BME280;42456;49.956;20.004;2022-09-17T08:25:55;97320.36;;;15.10;68.31
56568;BME280;42456;49.956;20.004;2022-09-17T08:28:24;97314.77;;;15.16;68.08
56568;BME280;42456;49.956;20.004;2022-09-17T08:30:52;97317.47;;;15.20;67.88
56568;BME280;42456;49.956;20.004;2022-09-17T08:33:19;97316.73;;;15.26;67.94
56568;BME280;42456;49.956;20.004;2022-09-17T08:35:53;97319.91;;;15.39;68.40
56568;BME280;42456;49.956;20.004;2022-09-17T08:38:20;97318.39;;;15.52;68.23
56568;BME280;42456;49.956;20.004;2022-09-17T08:49:35;97326.37;;;15.75;66.41
56568;BME280;42456;49.956;20.004;2022-09-17T09:00:38;97319.81;;;16.08;64.49
56568;BME280;42456;49.956;20.004;2022-09-17T09:06:15;97314.80;;;16.13;64.09
56568;BME280;42456;49.956;20.004;2022-09-17T09:08:48;97306.84;;;16.11;62.88
56568;BME280;42456;49.956;20.004;2022-09-17T09:11:24;97300.84;;;16.15;63.44
56568;BME280;42456;49.956;20.004;2022-09-17T09:14:03;97297.92;;;16.24;62.34
56568;BME280;42456;49.956;20.004;2022-09-17T09:16:32;97300.64;;;16.28;61.92
56568;BME280;42456;49.956;20.004;2022-09-17T09:19:00;97295.61;;;16.26;61.94
56568;BME280;42456;49.956;20.004;2022-09-17T09:21:42;97296.76;;;16.29;62.06
56568;BME280;42456;49.956;20.004;2022-09-17T09:24:17;97295.02;;;16.30;61.64
56568;BME280;42456;49.956;20.004;2022-09-17T09:26:46;97297.16;;;16.34;61.38
56568;BME280;42456;49.956;20.004;2022-09-17T09:32:40;97301.39;;;16.42;60.50
56568;BME280;42456;49.956;20.004;2022-09-17T09:40:42;97324.66;;;16.71;60.12
56568;BME280;42456;49.956;20.004;2022-09-17T09:43:32;97327.95;;;16.74;60.24
56568;BME280;42456;49.956;20.004;2022-09-17T09:49:11;97332.36;;;16.94;59.99
56568;BME280;42456;49.956;20.004;2022-09-17T09:56:55;97328.61;;;17.17;59.15
56568;BME280;42456;49.956;20.004;2022-09-17T09:59:23;97332.66;;;17.24;58.73
56568;BME280;42456;49.956;20.004;2022-09-17T10:01:50;97334.19;;;17.25;58.07
56568;BME280;42456;49.956;20.004;2022-09-17T10:04:22;97334.80;;;17.25;58.20
56568;BME280;42456;49.956;20.004;2022-09-17T10:07:00;97341.55;;;17.28;58.37
56568;BME280;42456;49.956;20.004;2022-09-17T10:09:31;97347.78;;;17.25;57.92
56568;BME280;42456;49.956;20.004;2022-09-17T10:14:39;97350.53;;;17.22;57.94
56568;BME280;42456;49.956;20.004;2022-09-17T10:17:18;97360.22;;;17.19;57.33
56568;BME280;42456;49.956;20.004;2022-09-17T10:22:36;97347.20;;;17.22;57.15
56568;BME280;42456;49.956;20.004;2022-09-17T10:25:28;97344.09;;;17.24;57.12
56568;BME280;42456;49.956;20.004;2022-09-17T10:28:00;97349.35;;;17.19;56.71
56568;BME280;42456;49.956;20.004;2022-09-17T10:30:29;97353.28;;;17.11;56.75
56568;BME280;42456;49.956;20.004;2022-09-17T10:38:37;97336.77;;;17.14;56.62
56568;BME280;42456;49.956;20.004;2022-09-17T10:41:11;97342.38;;;17.22;56.90
56568;BME280;42456;49.956;20.004;2022-09-17T10:43:39;97331.83;;;17.34;57.07
56568;BME280;42456;49.956;20.004;2022-09-17T10:46:17;97339.56;;;17.46;56.68
56568;BME280;42456;49.956;20.004;2022-09-17T10:51:36;97333.16;;;17.52;55.35
56568;BME280;42456;49.956;20.004;2022-09-17T10:54:17;97333.33;;;17.53;55.13
56568;BME280;42456;49.956;20.004;2022-09-17T10:56:47;97336.80;;;17.57;55.04
56568;BME280;42456;49.956;20.004;2022-09-17T11:05:00;97330.31;;;17.73;55.10
56568;BME280;42456;49.956;20.004;2022-09-17T11:07:38;97332.43;;;17.73;54.69
56568;BME280;42456;49.956;20.004;2022-09-17T11:10:24;97334.74;;;17.78;55.13
56568;BME280;42456;49.956;20.004;2022-09-17T11:21:55;97346.06;;;17.99;54.15
56568;BME280;42456;49.956;20.004;2022-09-17T11:27:44;97344.63;;;18.09;54.17
56568;BME280;42456;49.956;20.004;2022-09-17T11:30:17;97344.00;;;18.17;54.50
56568;BME280;42456;49.956;20.004;2022-09-17T11:33:02;97345.52;;;18.21;53.42
56568;BME280;42456;49.956;20.004;2022-09-17T11:35:44;97341.41;;;18.25;53.48
56568;BME280;42456;49.956;20.004;2022-09-17T11:40:43;97338.41;;;18.34;52.72
56568;BME280;42456;49.956;20.004;2022-09-17T11:43:30;97337.44;;;18.40;52.48
56568;BME280;42456;49.956;20.004;2022-09-17T11:46:06;97337.77;;;18.45;52.47
56568;BME280;42456;49.956;20.004;2022-09-17T11:48:57;97338.91;;;18.48;52.23
56568;BME280;42456;49.956;20.004;2022-09-17T11:51:38;97351.23;;;18.41;52.33
56568;BME280;42456;49.956;20.004;2022-09-17T11:55:23;97355.70;;;18.36;52.11
56568;BME280;42456;49.956;20.004;2022-09-17T11:59:53;97348.89;;;18.10;52.70
56568;BME280;42456;49.956;20.004;2022-09-17T12:02:44;97344.30;;;18.00;52.68
56568;BME280;42456;49.956;20.004;2022-09-17T12:05:18;97343.63;;;17.86;52.30
56568;BME280;42456;49.956;20.004;2022-09-17T12:08:03;97333.23;;;17.70;52.41
56568;BME280;42456;49.956;20.004;2022-09-17T12:16:25;97331.41;;;17.46;53.45
56568;BME280;42456;49.956;20.004;2022-09-17T12:21:55;97320.21;;;17.27;53.97
56568;BME280;42456;49.956;20.004;2022-09-17T12:24:26;97317.75;;;17.14;54.47
56568;BME280;42456;49.956;20.004;2022-09-17T12:32:53;97312.80;;;16.77;55.03
56568;BME280;42456;49.956;20.004;2022-09-17T12:38:39;97298.29;;;16.68;55.77
56568;BME280;42456;49.956;20.004;2022-09-17T12:44:25;97282.57;;;16.68;56.27
56568;BME280;42456;49.956;20.004;2022-09-17T12:50:06;97288.58;;;16.78;56.37
56568;BME280;42456;49.956;20.004;2022-09-17T12:55:44;97276.86;;;16.95;56.61
56568;BME280;42456;49.956;20.004;2022-09-17T13:01:33;97259.95;;;17.03;55.63
56568;BME280;42456;49.956;20.004;2022-09-17T13:07:19;97256.09;;;17.04;56.30
56568;BME280;42456;49.956;20.004;2022-09-17T13:12:46;97267.97;;;16.87;56.22
56568;BME280;42456;49.956;20.004;2022-09-17T13:21:05;97260.46;;;16.69;56.98
56568;BME280;42456;49.956;20.004;2022-09-17T13:23:45;97258.73;;;16.67;57.38
56568;BME280;42456;49.956;20.004;2022-09-17T13:26:11;97268.42;;;16.65;56.90
56568;BME280;42456;49.956;20.004;2022-09-17T13:28:43;97260.70;;;16.60;56.74
56568;BME280;42456;49.956;20.004;2022-09-17T13:31:12;97268.48;;;16.51;56.81
56568;BME280;42456;49.956;20.004;2022-09-17T13:33:50;97269.25;;;16.44;57.28
56568;BME280;42456;49.956;20.004;2022-09-17T13:36:39;97265.75;;;16.40;57.74
56568;BME280;42456;49.956;20.004;2022-09-17T13:39:11;97271.17;;;16.37;57.30
56568;BME280;42456;49.956;20.004;2022-09-17T13:41:58;97276.59;;;16.33;57.22
56568;BME280;42456;49.956;20.004;2022-09-17T13:44:36;97280.48;;;16.29;57.25
56568;BME280;42456;49.956;20.004;2022-09-17T13:47:09;97270.80;;;16.28;57.46
56568;BME280;42456;49.956;20.004;2022-09-17T13:49:53;97270.80;;;16.28;57.44
56568;BME280;42456;49.956;20.004;2022-09-17T13:52:44;97267.69;;;16.26;57.77
56568;BME280;42456;49.956;20.004;2022-09-17T14:00:54;97259.16;;;16.27;58.01
56568;BME280;42456;49.956;20.004;2022-09-17T14:21:57;97222.30;;;16.54;57.85
56568;BME280;42456;49.956;20.004;2022-09-17T14:30:28;97248.87;;;16.41;58.05
56568;BME280;42456;49.956;20.004;2022-09-17T14:33:15;97244.25;;;16.34;58.17
56568;BME280;42456;49.956;20.004;2022-09-17T14:35:48;97241.73;;;16.25;57.92
56568;BME280;42456;49.956;20.004;2022-09-17T14:43:59;97240.78;;;15.99;58.74
56568;BME280;42456;49.956;20.004;2022-09-17T14:46:33;97230.52;;;15.91;58.68
56568;BME280;42456;49.956;20.004;2022-09-17T14:49:33;97228.59;;;15.85;59.05
56568;BME280;42456;49.956;20.004;2022-09-17T14:51:48;97232.25;;;15.79;59.20
56568;BME280;42456;49.956;20.004;2022-09-17T14:54:17;97232.27;;;15.72;59.45
56568;BME280;42456;49.956;20.004;2022-09-17T14:59:44;97236.14;;;15.61;60.09
56568;BME280;42456;49.956;20.004;2022-09-17T15:10:53;97220.97;;;15.28;61.11
56568;BME280;42456;49.956;20.004;2022-09-17T15:13:33;97216.48;;;15.23;61.34
56568;BME280;42456;49.956;20.004;2022-09-17T15:16:12;97213.96;;;15.17;61.49
56568;BME280;42456;49.956;20.004;2022-09-17T15:26:48;97213.36;;;15.06;62.73
56568;BME280;42456;49.956;20.004;2022-09-17T15:29:19;97214.13;;;15.03;62.76
56568;BME280;42456;49.956;20.004;2022-09-17T15:31:48;97226.11;;;14.99;62.55
56568;BME280;42456;49.956;20.004;2022-09-17T15:34:15;97226.09;;;14.92;62.77
56568;BME280;42456;49.956;20.004;2022-09-17T15:37:01;97222.77;;;14.85;62.77
56568;BME280;42456;49.956;20.004;2022-09-17T15:39:36;97225.08;;;14.80;63.09
56568;BME280;42456;49.956;20.004;2022-09-17T15:41:59;97220.59;;;14.74;63.39
56568;BME280;42456;49.956;20.004;2022-09-17T15:44:25;97225.60;;;14.69;63.51
56568;BME280;42456;49.956;20.004;2022-09-17T15:46:53;97227.72;;;14.66;63.74
56568;BME280;42456;49.956;20.004;2022-09-17T15:49:27;97236.97;;;14.61;63.64
56568;BME280;42456;49.956;20.004;2022-09-17T15:54:55;97234.21;;;14.51;63.97
56568;BME280;42456;49.956;20.004;2022-09-17T15:57:23;97233.99;;;14.46;64.07
56568;BME280;42456;49.956;20.004;2022-09-17T15:59:51;97236.29;;;14.41;64.21
56568;BME280;42456;49.956;20.004;2022-09-17T16:02:27;97238.19;;;14.37;64.23
56568;BME280;42456;49.956;20.004;2022-09-17T16:07:41;97245.28;;;14.28;64.39
56568;BME280;42456;49.956;20.004;2022-09-17T16:10:10;97249.47;;;14.22;64.36
56568;BME280;42456;49.956;20.004;2022-09-17T16:12:38;97249.24;;;14.18;64.43
56568;BME280;42456;49.956;20.004;2022-09-17T16:15:05;97250.75;;;14.12;64.49
56568;BME280;42456;49.956;20.004;2022-09-17T16:20:20;97252.02;;;14.01;64.85
56568;BME280;42456;49.956;20.004;2022-09-17T16:22:54;97258.52;;;13.93;65.04
56568;BME280;42456;49.956;20.004;2022-09-17T16:25:22;97253.47;;;13.88;65.40
56568;BME280;42456;49.956;20.004;2022-09-17T16:27:59;97249.56;;;13.82;65.60
56568;BME280;42456;49.956;20.004;2022-09-17T16:30:28;97254.93;;;13.79;65.69
56568;BME280;42456;49.956;20.004;2022-09-17T16:32:54;97250.64;;;13.74;65.95
56568;BME280;42456;49.956;20.004;2022-09-17T16:35:22;97256.00;;;13.71;66.09
56568;BME280;42456;49.956;20.004;2022-09-17T16:37:52;97261.18;;;13.66;66.28
56568;BME280;42456;49.956;20.004;2022-09-17T16:40:21;97258.05;;;13.61;66.46
56568;BME280;42456;49.956;20.004;2022-09-17T16:42:48;97247.19;;;13.54;66.61
56568;BME280;42456;49.956;20.004;2022-09-17T16:45:15;97253.11;;;13.50;66.88
56568;BME280;42456;49.956;20.004;2022-09-17T16:47:41;97242.86;;;13.46;67.06
56568;BME280;42456;49.956;20.004;2022-09-17T16:50:13;97236.44;;;13.41;67.26
56568;BME280;42456;49.956;20.004;2022-09-17T16:52:40;97239.86;;;13.34;67.43